sensor_id;sensor_type;location;lat;lon;timestamp;pressure;altitude;pressure_sealevel;temperature;humidity
69402;BME280;56589;51.992;5.924;2023-06-24T00:01:51;101916.44;;;18.47;63.68
69402;BME280;56589;51.992;5.924;2023-06-24T00:04:16;101916.56;;;18.46;63.78
69402;BME280;56589;51.992;5.924;2023-06-24T00:06:42;101918.97;;;18.49;63.56
69402;BME280;56589;51.992;5.924;2023-06-24T00:09:08;101912.44;;;18.53;63.72
69402;BME280;56589;51.992;5.924;2023-06-24T00:11:34;101907.69;;;18.56;63.77
69402;BME280;56589;51.992;5.924;2023-06-24T00:14:00;101908.47;;;18.58;64.06
69402;BME280;56589;51.992;5.924;2023-06-24T00:16:28;101902.91;;;18.62;64.07
69402;BME280;56589;51.992;5.924;2023-06-24T00:18:55;101902.91;;;18.62;63.96
69402;BME280;56589;51.992;5.924;2023-06-24T00:21:21;101909.31;;;18.59;64.23
69402;BME280;56589;51.992;5.924;2023-06-24T00:23:47;101910.34;;;18.56;64.16
69402;BME280;56589;51.992;5.924;2023-06-24T00:26:13;101914.00;;;18.55;64.29
69402;BME280;56589;51.992;5.924;2023-06-24T00:28:38;101914.13;;;18.54;64.36
69402;BME280;56589;51.992;5.924;2023-06-24T00:31:04;101916.91;;;18.52;63.90
69402;BME280;56589;51.992;5.924;2023-06-24T00:33:33;101918.72;;;18.52;64.21
69402;BME280;56589;51.992;5.924;2023-06-24T00:35:59;101920.78;;;18.48;64.16
69402;BME280;56589;51.992;5.924;2023-06-24T00:38:24;101925.25;;;18.48;64.32
69402;BME280;56589;51.992;5.924;2023-06-24T00:40:50;101919.94;;;18.48;64.19
69402;BME280;56589;51.992;5.924;2023-06-24T00:43:16;101917.13;;;18.49;64.48
69402;BME280;56589;51.992;5.924;2023-06-24T00:45:42;101917.75;;;18.53;64.46
69402;BME280;56589;51.992;5.924;2023-06-24T00:48:09;101912.91;;;18.58;64.36
69402;BME280;56589;51.992;5.924;2023-06-24T00:50:37;101914.38;;;18.62;64.63
69402;BME280;56589;51.992;5.924;2023-06-24T00:53:03;101919.22;;;18.68;64.01
69402;BME280;56589;51.992;5.924;2023-06-24T00:55:29;101919.06;;;18.70;64.44
69402;BME280;56589;51.992;5.924;2023-06-24T00:57:55;101922.34;;;18.73;64.49
69402;BME280;56589;51.992;5.924;2023-06-24T01:00:22;101925.72;;;18.75;64.55
69402;BME280;56589;51.992;5.924;2023-06-24T01:02:48;101920.16;;;18.78;64.57
69402;BME280;56589;51.992;5.924;2023-06-24T01:05:15;101912.75;;;18.82;64.56
69402;BME280;56589;51.992;5.924;2023-06-24T01:07:46;101910.44;;;18.89;64.90
69402;BME280;56589;51.992;5.924;2023-06-24T01:10:12;101908.25;;;18.94;64.81
69402;BME280;56589;51.992;5.924;2023-06-24T01:12:39;101907.28;;;18.95;64.85
69402;BME280;56589;51.992;5.924;2023-06-24T01:15:07;101897.63;;;18.94;64.68
69402;BME280;56589;51.992;5.924;2023-06-24T01:17:39;101898.59;;;18.93;64.43
69402;BME280;56589;51.992;5.924;2023-06-24T01:20:14;101892.56;;;18.91;64.34
69402;BME280;56589;51.992;5.924;2023-06-24T01:23:11;101906.09;;;18.88;64.94
69402;BME280;56589;51.992;5.924;2023-06-24T01:26:08;101910.22;;;18.80;64.65
69402;BME280;56589;51.992;5.924;2023-06-24T01:32:04;101904.72;;;18.61;65.07
69402;BME280;56589;51.992;5.924;2023-06-24T01:34:37;101900.81;;;18.54;64.54
69402;BME280;56589;51.992;5.924;2023-06-24T01:37:12;101897.69;;;18.49;64.85
69402;BME280;56589;51.992;5.924;2023-06-24T01:39:46;101901.81;;;18.42;64.66
69402;BME280;56589;51.992;5.924;2023-06-24T01:42:16;101901.19;;;18.38;64.51
69402;BME280;56589;51.992;5.924;2023-06-24T01:44:47;101896.13;;;18.35;64.57
69402;BME280;56589;51.992;5.924;2023-06-24T01:47:20;101892.13;;;18.29;64.80
69402;BME280;56589;51.992;5.924;2023-06-24T01:49:53;101895.16;;;18.25;64.66
69402;BME280;56589;51.992;5.924;2023-06-24T01:52:22;101897.22;;;18.21;64.45
69402;BME280;56589;51.992;5.924;2023-06-24T01:54:55;101899.13;;;18.19;64.77
69402;BME280;56589;51.992;5.924;2023-06-24T01:57:24;101902.63;;;18.20;65.20
69402;BME280;56589;51.992;5.924;2023-06-24T01:59:53;101892.97;;;18.19;65.72
69402;BME280;56589;51.992;5.924;2023-06-24T02:02:25;101900.25;;;18.17;65.84
69402;BME280;56589;51.992;5.924;2023-06-24T02:04:54;101907.38;;;18.16;65.62
69402;BME280;56589;51.992;5.924;2023-06-24T02:07:23;101905.69;;;18.15;66.42
69402;BME280;56589;51.992;5.924;2023-06-24T02:09:53;101901.22;;;18.16;66.59
69402;BME280;56589;51.992;5.924;2023-06-24T02:12:20;101899.63;;;18.13;66.57
69402;BME280;56589;51.992;5.924;2023-06-24T02:14:50;101894.31;;;18.13;66.42
69402;BME280;56589;51.992;5.924;2023-06-24T02:17:19;101894.31;;;18.13;66.69
69402;BME280;56589;51.992;5.924;2023-06-24T02:19:49;101889.81;;;18.14;66.67
69402;BME280;56589;51.992;5.924;2023-06-24T02:22:17;101894.16;;;18.15;66.55
69402;BME280;56589;51.992;5.924;2023-06-24T02:24:45;101893.31;;;18.14;66.88
69402;BME280;56589;51.992;5.924;2023-06-24T02:27:13;101890.81;;;18.13;66.66
69402;BME280;56589;51.992;5.924;2023-06-24T02:29:39;101889.97;;;18.12;66.41
69402;BME280;56589;51.992;5.924;2023-06-24T02:32:08;101891.78;;;18.12;66.50
69402;BME280;56589;51.992;5.924;2023-06-24T02:34:37;101889.97;;;18.12;66.42
69402;BME280;56589;51.992;5.924;2023-06-24T02:37:05;101890.94;;;18.11;66.49
69402;BME280;56589;51.992;5.924;2023-06-24T02:39:31;101891.78;;;18.12;66.27
69402;BME280;56589;51.992;5.924;2023-06-24T02:41:57;101878.59;;;18.10;66.41
69402;BME280;56589;51.992;5.924;2023-06-24T02:44:23;101878.59;;;18.10;66.46
69402;BME280;56589;51.992;5.924;2023-06-24T02:46:50;101872.53;;;18.08;67.04
69402;BME280;56589;51.992;5.924;2023-06-24T02:49:19;101877.03;;;18.08;66.77
69402;BME280;56589;51.992;5.924;2023-06-24T02:51:49;101869.31;;;18.04;67.39
69402;BME280;56589;51.992;5.924;2023-06-24T02:54:15;101872.09;;;18.03;66.96
69402;BME280;56589;51.992;5.924;2023-06-24T02:56:42;101875.94;;;17.99;67.13
69402;BME280;56589;51.992;5.924;2023-06-24T02:59:09;101870.13;;;17.94;67.22
69402;BME280;56589;51.992;5.924;2023-06-24T03:01:36;101873.38;;;17.86;67.30
69402;BME280;56589;51.992;5.924;2023-06-24T03:04:03;101878.44;;;17.78;67.32
69402;BME280;56589;51.992;5.924;2023-06-24T03:06:30;101879.78;;;17.72;67.51
69402;BME280;56589;51.992;5.924;2023-06-24T03:09:00;101875.78;;;17.67;67.82
69402;BME280;56589;51.992;5.924;2023-06-24T03:11:26;101876.81;;;17.64;68.04
69402;BME280;56589;51.992;5.924;2023-06-24T03:13:52;101878.75;;;17.62;67.61
69402;BME280;56589;51.992;5.924;2023-06-24T03:16:17;101883.34;;;17.60;68.23
69402;BME280;56589;51.992;5.924;2023-06-24T03:18:44;101884.66;;;17.55;68.72
69402;BME280;56589;51.992;5.924;2023-06-24T03:21:10;101885.72;;;17.52;68.51
69402;BME280;56589;51.992;5.924;2023-06-24T03:23:36;101889.34;;;17.51;68.83
69402;BME280;56589;51.992;5.924;2023-06-24T03:26:04;101885.13;;;17.48;68.82
69402;BME280;56589;51.992;5.924;2023-06-24T03:28:30;101884.50;;;17.45;68.78
69402;BME280;56589;51.992;5.924;2023-06-24T03:30:56;101888.31;;;17.41;69.01
69402;BME280;56589;51.992;5.924;2023-06-24T03:33:22;101887.59;;;17.39;68.45
69402;BME280;56589;51.992;5.924;2023-06-24T03:35:48;101884.09;;;17.38;68.64
69402;BME280;56589;51.992;5.924;2023-06-24T03:38:14;101876.16;;;17.38;69.01
69402;BME280;56589;51.992;5.924;2023-06-24T03:40:39;101881.56;;;17.37;69.14
69402;BME280;56589;51.992;5.924;2023-06-24T03:43:08;101882.41;;;17.37;68.69
69402;BME280;56589;51.992;5.924;2023-06-24T03:45:34;101879.63;;;17.39;69.16
69402;BME280;56589;51.992;5.924;2023-06-24T03:48:00;101882.09;;;17.42;68.92
69402;BME280;56589;51.992;5.924;2023-06-24T03:50:25;101884.50;;;17.45;69.15
69402;BME280;56589;51.992;5.924;2023-06-24T03:52:51;101885.13;;;17.48;69.31
69402;BME280;56589;51.992;5.924;2023-06-24T03:55:17;101884.88;;;17.51;69.24
69402;BME280;56589;51.992;5.924;2023-06-24T03:57:43;101875.09;;;17.52;69.13
69402;BME280;56589;51.992;5.924;2023-06-24T04:00:13;101883.81;;;17.54;69.42
69402;BME280;56589;51.992;5.924;2023-06-24T04:02:39;101880.19;;;17.55;69.63
69402;BME280;56589;51.992;5.924;2023-06-24T04:05:06;101890.56;;;17.58;69.38
69402;BME280;56589;51.992;5.924;2023-06-24T04:07:32;101888.66;;;17.60;69.32
69402;BME280;56589;51.992;5.924;2023-06-24T04:09:58;101886.59;;;17.64;69.46
69402;BME280;56589;51.992;5.924;2023-06-24T04:12:24;101891.72;;;17.67;69.50
69402;BME280;56589;51.992;5.924;2023-06-24T04:14:49;101892.44;;;17.69;69.14
69402;BME280;56589;51.992;5.924;2023-06-24T04:17:18;101891.47;;;17.70;69.34
69402;BME280;56589;51.992;5.924;2023-06-24T04:19:44;101889.19;;;17.76;69.56
69402;BME280;56589;51.992;5.924;2023-06-24T04:22:09;101891.16;;;17.86;69.36
69402;BME280;56589;51.992;5.924;2023-06-24T04:24:35;101887.03;;;17.93;69.74
69402;BME280;56589;51.992;5.924;2023-06-24T04:27:01;101890.19;;;17.98;69.31
69402;BME280;56589;51.992;5.924;2023-06-24T04:29:27;101890.44;;;18.06;69.92
69402;BME280;56589;51.992;5.924;2023-06-24T04:31:53;101896.72;;;18.16;69.59
69402;BME280;56589;51.992;5.924;2023-06-24T04:34:22;101892.25;;;18.28;69.71
69402;BME280;56589;51.992;5.924;2023-06-24T04:36:48;101899.28;;;18.40;69.92
69402;BME280;56589;51.992;5.924;2023-06-24T04:39:13;101893.34;;;18.59;69.64
69402;BME280;56589;51.992;5.924;2023-06-24T04:41:39;101893.97;;;18.95;70.25
69402;BME280;56589;51.992;5.924;2023-06-24T04:44:05;101894.38;;;19.54;70.48
69402;BME280;56589;51.992;5.924;2023-06-24T04:46:31;101903.88;;;20.19;69.08
69402;BME280;56589;51.992;5.924;2023-06-24T04:48:57;101902.69;;;20.83;67.99
69402;BME280;56589;51.992;5.924;2023-06-24T04:51:25;101907.53;;;21.47;66.99
69402;BME280;56589;51.992;5.924;2023-06-24T04:53:51;101909.44;;;22.03;65.69
69402;BME280;56589;51.992;5.924;2023-06-24T04:56:17;101904.56;;;22.64;64.38
69402;BME280;56589;51.992;5.924;2023-06-24T04:58:43;101902.63;;;23.19;63.43
69402;BME280;56589;51.992;5.924;2023-06-24T05:01:09;101909.63;;;23.74;62.15
69402;BME280;56589;51.992;5.924;2023-06-24T05:03:35;101911.75;;;24.22;60.53
69402;BME280;56589;51.992;5.924;2023-06-24T05:06:01;101909.06;;;24.64;59.75
69402;BME280;56589;51.992;5.924;2023-06-24T05:08:29;101906.03;;;25.10;58.28
69402;BME280;56589;51.992;5.924;2023-06-24T05:10:55;101910.09;;;25.55;56.57
69402;BME280;56589;51.992;5.924;2023-06-24T05:13:23;101909.84;;;25.97;54.64
69402;BME280;56589;51.992;5.924;2023-06-24T05:15:49;101903.69;;;26.36;52.96
69402;BME280;56589;51.992;5.924;2023-06-24T05:18:14;101910.47;;;26.71;52.20
69402;BME280;56589;51.992;5.924;2023-06-24T05:20:40;101904.31;;;27.08;50.74
69402;BME280;56589;51.992;5.924;2023-06-24T05:23:06;101911.94;;;27.50;49.91
69402;BME280;56589;51.992;5.924;2023-06-24T05:25:35;101901.75;;;27.90;48.37
69402;BME280;56589;51.992;5.924;2023-06-24T05:28:01;101904.94;;;28.23;47.84
69402;BME280;56589;51.992;5.924;2023-06-24T05:30:26;101917.59;;;28.52;46.62
69402;BME280;56589;51.992;5.924;2023-06-24T05:32:52;101919.19;;;28.83;45.08
69402;BME280;56589;51.992;5.924;2023-06-24T05:35:18;101915.50;;;29.05;43.68
69402;BME280;56589;51.992;5.924;2023-06-24T05:37:44;101931.31;;;29.23;43.75
69402;BME280;56589;51.992;5.924;2023-06-24T05:40:11;101924.97;;;29.37;42.52
69402;BME280;56589;51.992;5.924;2023-06-24T05:42:40;101934.88;;;29.52;42.01
69402;BME280;56589;51.992;5.924;2023-06-24T05:45:07;101935.13;;;29.78;41.20
69402;BME280;56589;51.992;5.924;2023-06-24T05:47:33;101923.22;;;30.07;41.07
69402;BME280;56589;51.992;5.924;2023-06-24T05:49:59;101929.25;;;30.37;39.88
69402;BME280;56589;51.992;5.924;2023-06-24T05:52:25;101930.16;;;30.58;39.82
69402;BME280;56589;51.992;5.924;2023-06-24T05:54:51;101927.16;;;30.80;38.68
69402;BME280;56589;51.992;5.924;2023-06-24T05:57:17;101924.25;;;31.02;38.24
69402;BME280;56589;51.992;5.924;2023-06-24T05:59:45;101937.66;;;31.23;37.28
69402;BME280;56589;51.992;5.924;2023-06-24T06:02:11;101939.16;;;31.39;36.37
69402;BME280;56589;51.992;5.924;2023-06-24T06:04:38;101935.38;;;31.47;35.70
69402;BME280;56589;51.992;5.924;2023-06-24T06:07:04;101942.50;;;31.41;35.51
69402;BME280;56589;51.992;5.924;2023-06-24T06:09:30;101932.66;;;31.33;35.51
69402;BME280;56589;51.992;5.924;2023-06-24T06:11:56;101943.34;;;31.35;35.30
69402;BME280;56589;51.992;5.924;2023-06-24T06:14:22;101937.69;;;31.50;34.81
69402;BME280;56589;51.992;5.924;2023-06-24T06:16:51;101936.00;;;31.69;34.74
69402;BME280;56589;51.992;5.924;2023-06-24T06:19:16;101937.25;;;31.86;34.78
69402;BME280;56589;51.992;5.924;2023-06-24T06:21:42;101939.94;;;32.06;34.47
69402;BME280;56589;51.992;5.924;2023-06-24T06:24:09;101934.66;;;32.24;34.00
69402;BME280;56589;51.992;5.924;2023-06-24T06:26:34;101939.69;;;32.27;33.36
69402;BME280;56589;51.992;5.924;2023-06-24T06:29:06;101938.03;;;32.20;31.93
69402;BME280;56589;51.992;5.924;2023-06-24T06:31:32;101948.06;;;32.19;34.31
69402;BME280;56589;51.992;5.924;2023-06-24T06:34:01;101943.81;;;32.43;33.58
69402;BME280;56589;51.992;5.924;2023-06-24T06:36:26;101939.13;;;32.70;32.83
69402;BME280;56589;51.992;5.924;2023-06-24T06:38:52;101950.53;;;32.92;32.59
69402;BME280;56589;51.992;5.924;2023-06-24T06:41:18;101943.19;;;32.86;31.89
69402;BME280;56589;51.992;5.924;2023-06-24T06:43:44;101938.91;;;32.72;32.03
69402;BME280;56589;51.992;5.924;2023-06-24T06:46:10;101942.03;;;32.68;32.41
69402;BME280;56589;51.992;5.924;2023-06-24T06:48:36;101942.13;;;32.87;31.98
69402;BME280;56589;51.992;5.924;2023-06-24T06:51:04;101948.94;;;33.09;31.74
69402;BME280;56589;51.992;5.924;2023-06-24T06:53:30;101950.56;;;33.17;31.33
69402;BME280;56589;51.992;5.924;2023-06-24T06:55:56;101947.38;;;33.27;30.87
69402;BME280;56589;51.992;5.924;2023-06-24T06:58:22;101949.19;;;33.33;30.85
69402;BME280;56589;51.992;5.924;2023-06-24T07:00:48;101961.16;;;33.32;31.02
69402;BME280;56589;51.992;5.924;2023-06-24T07:03:14;101958.34;;;33.45;30.85
69402;BME280;56589;51.992;5.924;2023-06-24T07:05:39;101953.16;;;33.62;30.94
69402;BME280;56589;51.992;5.924;2023-06-24T07:08:08;101953.06;;;33.75;30.62
69402;BME280;56589;51.992;5.924;2023-06-24T07:10:34;101951.63;;;33.91;30.78
69402;BME280;56589;51.992;5.924;2023-06-24T07:13:00;101963.25;;;34.05;30.17
69402;BME280;56589;51.992;5.924;2023-06-24T07:15:26;101965.78;;;34.06;29.49
69402;BME280;56589;51.992;5.924;2023-06-24T07:17:53;101965.47;;;33.89;29.21
69402;BME280;56589;51.992;5.924;2023-06-24T07:20:19;101968.25;;;33.64;29.70
69402;BME280;56589;51.992;5.924;2023-06-24T07:22:46;101972.78;;;33.70;29.68
69402;BME280;56589;51.992;5.924;2023-06-24T07:25:15;101962.59;;;33.84;29.59
69402;BME280;56589;51.992;5.924;2023-06-24T07:27:41;101972.94;;;34.00;29.46
69402;BME280;56589;51.992;5.924;2023-06-24T07:30:07;101974.47;;;34.15;29.07
69402;BME280;56589;51.992;5.924;2023-06-24T07:32:33;101973.41;;;34.34;29.12
69402;BME280;56589;51.992;5.924;2023-06-24T07:34:59;101972.97;;;34.56;28.23
69402;BME280;56589;51.992;5.924;2023-06-24T07:37:25;101976.03;;;34.77;27.67
69402;BME280;56589;51.992;5.924;2023-06-24T07:39:51;101978.06;;;35.00;27.76
69402;BME280;56589;51.992;5.924;2023-06-24T07:42:19;101976.88;;;35.08;27.33
69402;BME280;56589;51.992;5.924;2023-06-24T07:44:45;101973.09;;;35.09;27.39
69402;BME280;56589;51.992;5.924;2023-06-24T07:47:11;101979.06;;;35.18;27.02
69402;BME280;56589;51.992;5.924;2023-06-24T07:49:37;101980.59;;;35.14;26.57
69402;BME280;56589;51.992;5.924;2023-06-24T07:52:03;101975.56;;;34.99;26.62
69402;BME280;56589;51.992;5.924;2023-06-24T07:54:29;101974.91;;;34.85;26.68
69402;BME280;56589;51.992;5.924;2023-06-24T07:56:55;101971.69;;;34.58;26.61
69402;BME280;56589;51.992;5.924;2023-06-24T07:59:23;101974.88;;;34.18;26.30
69402;BME280;56589;51.992;5.924;2023-06-24T08:01:50;101971.50;;;33.73;26.64
69402;BME280;56589;51.992;5.924;2023-06-24T08:04:15;101971.03;;;33.58;27.22
69402;BME280;56589;51.992;5.924;2023-06-24T08:06:41;101964.69;;;33.64;27.39
69402;BME280;56589;51.992;5.924;2023-06-24T08:09:07;101961.97;;;33.64;26.80
69402;BME280;56589;51.992;5.924;2023-06-24T08:11:33;101965.63;;;33.76;26.63
69402;BME280;56589;51.992;5.924;2023-06-24T08:13:59;101960.88;;;33.90;26.54
69402;BME280;56589;51.992;5.924;2023-06-24T08:16:28;101961.31;;;34.12;26.32
69402;BME280;56589;51.992;5.924;2023-06-24T08:18:53;101961.50;;;34.28;25.94
69402;BME280;56589;51.992;5.924;2023-06-24T08:21:19;101953.41;;;34.40;25.93
69402;BME280;56589;51.992;5.924;2023-06-24T08:23:45;101956.38;;;34.39;26.15
69402;BME280;56589;51.992;5.924;2023-06-24T08:26:11;101958.09;;;34.33;25.93
69402;BME280;56589;51.992;5.924;2023-06-24T08:28:37;101958.63;;;34.23;25.94
69402;BME280;56589;51.992;5.924;2023-06-24T08:31:03;101960.53;;;34.23;25.93
69402;BME280;56589;51.992;5.924;2023-06-24T08:33:32;101956.06;;;34.28;25.52
69402;BME280;56589;51.992;5.924;2023-06-24T08:35:58;101957.19;;;34.39;25.38
69402;BME280;56589;51.992;5.924;2023-06-24T08:38:25;101954.22;;;34.41;25.95
69402;BME280;56589;51.992;5.924;2023-06-24T08:40:51;101954.09;;;34.54;24.93
69402;BME280;56589;51.992;5.924;2023-06-24T08:43:17;101956.22;;;34.52;24.83
69402;BME280;56589;51.992;5.924;2023-06-24T08:45:43;101957.28;;;34.51;24.73
69402;BME280;56589;51.992;5.924;2023-06-24T08:48:12;101950.41;;;34.48;24.65
69402;BME280;56589;51.992;5.924;2023-06-24T08:50:44;101951.91;;;34.26;24.55
69402;BME280;56589;51.992;5.924;2023-06-24T08:53:16;101955.47;;;34.08;24.93
69402;BME280;56589;51.992;5.924;2023-06-24T08:55:46;101948.25;;;33.95;25.00
69402;BME280;56589;51.992;5.924;2023-06-24T08:58:14;101953.41;;;34.04;25.00
69402;BME280;56589;51.992;5.924;2023-06-24T09:00:40;101955.06;;;34.05;24.79
69402;BME280;56589;51.992;5.924;2023-06-24T09:03:06;101952.16;;;33.81;24.65
69402;BME280;56589;51.992;5.924;2023-06-24T09:05:32;101948.88;;;33.72;25.02
69402;BME280;56589;51.992;5.924;2023-06-24T09:08:00;101950.63;;;33.85;25.75
69402;BME280;56589;51.992;5.924;2023-06-24T09:10:30;101950.69;;;34.04;25.27
69402;BME280;56589;51.992;5.924;2023-06-24T09:12:58;101958.94;;;34.15;25.70
69402;BME280;56589;51.992;5.924;2023-06-24T09:15:24;101956.44;;;34.14;25.24
69402;BME280;56589;51.992;5.924;2023-06-24T09:17:50;101953.28;;;33.92;25.05
69402;BME280;56589;51.992;5.924;2023-06-24T09:20:16;101951.22;;;33.69;25.05
69402;BME280;56589;51.992;5.924;2023-06-24T09:22:44;101950.50;;;33.55;25.60
69402;BME280;56589;51.992;5.924;2023-06-24T09:25:16;101948.66;;;33.49;25.14
69402;BME280;56589;51.992;5.924;2023-06-24T09:27:47;101937.75;;;33.49;26.04
69402;BME280;56589;51.992;5.924;2023-06-24T09:30:17;101935.94;;;33.43;25.41
69402;BME280;56589;51.992;5.924;2023-06-24T09:32:44;101940.00;;;33.02;25.70
69402;BME280;56589;51.992;5.924;2023-06-24T09:35:10;101927.25;;;32.51;26.37
69402;BME280;56589;51.992;5.924;2023-06-24T09:37:36;101924.88;;;32.17;26.77
69402;BME280;56589;51.992;5.924;2023-06-24T09:40:02;101921.78;;;31.86;26.70
69402;BME280;56589;51.992;5.924;2023-06-24T09:42:31;101920.56;;;31.62;27.35
69402;BME280;56589;51.992;5.924;2023-06-24T09:44:57;101923.50;;;31.48;26.86
69402;BME280;56589;51.992;5.924;2023-06-24T09:47:23;101916.38;;;31.33;27.17
69402;BME280;56589;51.992;5.924;2023-06-24T09:49:49;101916.97;;;31.16;27.17
69402;BME280;56589;51.992;5.924;2023-06-24T09:52:15;101909.84;;;30.95;27.72
69402;BME280;56589;51.992;5.924;2023-06-24T09:54:46;101909.00;;;30.81;28.01
69402;BME280;56589;51.992;5.924;2023-06-24T09:57:18;101913.72;;;30.72;28.27
69402;BME280;56589;51.992;5.924;2023-06-24T09:59:53;101922.25;;;30.63;27.93
69402;BME280;56589;51.992;5.924;2023-06-24T10:02:20;101924.50;;;30.46;28.78
69402;BME280;56589;51.992;5.924;2023-06-24T10:04:46;101923.94;;;30.64;28.41
69402;BME280;56589;51.992;5.924;2023-06-24T10:07:14;101920.25;;;30.91;28.17
69402;BME280;56589;51.992;5.924;2023-06-24T10:09:40;101919.06;;;31.14;28.66
69402;BME280;56589;51.992;5.924;2023-06-24T10:12:07;101918.47;;;31.38;27.96
69402;BME280;56589;51.992;5.924;2023-06-24T10:14:33;101917.00;;;31.62;28.02
69402;BME280;56589;51.992;5.924;2023-06-24T10:17:05;101917.41;;;31.99;27.54
69402;BME280;56589;51.992;5.924;2023-06-24T10:19:31;101919.19;;;32.25;27.05
69402;BME280;56589;51.992;5.924;2023-06-24T10:22:07;101917.69;;;32.42;27.48
69402;BME280;56589;51.992;5.924;2023-06-24T10:24:35;101914.03;;;32.61;27.45
69402;BME280;56589;51.992;5.924;2023-06-24T10:27:03;101917.91;;;32.79;27.31
69402;BME280;56589;51.992;5.924;2023-06-24T10:29:31;101917.00;;;32.98;27.03
69402;BME280;56589;51.992;5.924;2023-06-24T10:32:05;101916.66;;;33.13;26.54
69402;BME280;56589;51.992;5.924;2023-06-24T10:34:39;101921.72;;;33.09;26.19
69402;BME280;56589;51.992;5.924;2023-06-24T10:37:09;101921.00;;;32.96;26.29
69402;BME280;56589;51.992;5.924;2023-06-24T10:39:37;101919.16;;;32.83;26.60
69402;BME280;56589;51.992;5.924;2023-06-24T10:42:37;101910.19;;;32.76;26.78
69402;BME280;56589;51.992;5.924;2023-06-24T10:45:18;101908.19;;;32.64;26.58
69402;BME280;56589;51.992;5.924;2023-06-24T10:47:48;101892.59;;;32.47;27.14
69402;BME280;56589;51.992;5.924;2023-06-24T10:50:20;101890.09;;;32.32;26.87
69402;BME280;56589;51.992;5.924;2023-06-24T10:52:48;101891.63;;;32.21;27.23
69402;BME280;56589;51.992;5.924;2023-06-24T10:55:16;101897.06;;;32.14;27.06
69402;BME280;56589;51.992;5.924;2023-06-24T10:57:43;101900.25;;;32.05;27.38
69402;BME280;56589;51.992;5.924;2023-06-24T11:00:11;101892.53;;;31.95;27.98
69402;BME280;56589;51.992;5.924;2023-06-24T11:02:38;101889.59;;;31.83;28.16
69402;BME280;56589;51.992;5.924;2023-06-24T11:05:07;101896.72;;;31.78;27.96
69402;BME280;56589;51.992;5.924;2023-06-24T11:07:36;101892.75;;;31.74;27.74
69402;BME280;56589;51.992;5.924;2023-06-24T11:10:08;101886.53;;;31.67;27.78
69402;BME280;56589;51.992;5.924;2023-06-24T11:12:36;101889.22;;;31.67;28.39
69402;BME280;56589;51.992;5.924;2023-06-24T11:15:05;101883.19;;;31.51;27.62
69402;BME280;56589;51.992;5.924;2023-06-24T11:17:33;101880.47;;;31.25;28.58
69402;BME280;56589;51.992;5.924;2023-06-24T11:20:00;101880.47;;;31.25;28.79
69402;BME280;56589;51.992;5.924;2023-06-24T11:22:29;101880.66;;;31.23;28.69
69402;BME280;56589;51.992;5.924;2023-06-24T11:24:55;101875.88;;;31.25;28.66
69402;BME280;56589;51.992;5.924;2023-06-24T11:27:25;101878.16;;;31.22;28.82
69402;BME280;56589;51.992;5.924;2023-06-24T11:29:52;101872.53;;;31.23;28.60
69402;BME280;56589;51.992;5.924;2023-06-24T11:32:18;101860.63;;;31.31;28.87
69402;BME280;56589;51.992;5.924;2023-06-24T11:34:45;101862.28;;;31.25;29.09
69402;BME280;56589;51.992;5.924;2023-06-24T11:37:12;101862.28;;;31.19;29.26
69402;BME280;56589;51.992;5.924;2023-06-24T11:39:43;101870.66;;;31.24;29.46
69402;BME280;56589;51.992;5.924;2023-06-24T11:42:09;101863.56;;;31.29;29.60
69402;BME280;56589;51.992;5.924;2023-06-24T11:44:40;101853.13;;;31.40;28.72
69402;BME280;56589;51.992;5.924;2023-06-24T11:47:08;101851.25;;;31.40;29.33
69402;BME280;56589;51.992;5.924;2023-06-24T11:49:48;101849.16;;;31.42;29.43
69402;BME280;56589;51.992;5.924;2023-06-24T11:52:14;101857.94;;;31.44;29.61
69402;BME280;56589;51.992;5.924;2023-06-24T11:54:43;101853.09;;;31.46;29.23
69402;BME280;56589;51.992;5.924;2023-06-24T11:57:09;101839.53;;;31.33;29.43
69402;BME280;56589;51.992;5.924;2023-06-24T11:59:35;101847.88;;;31.31;29.57
69402;BME280;56589;51.992;5.924;2023-06-24T12:02:01;101841.19;;;31.27;29.99
69402;BME280;56589;51.992;5.924;2023-06-24T12:04:28;101842.69;;;31.23;29.23
69402;BME280;56589;51.992;5.924;2023-06-24T12:06:56;101845.19;;;31.25;29.60
69402;BME280;56589;51.992;5.924;2023-06-24T12:09:22;101833.72;;;31.36;29.40
69402;BME280;56589;51.992;5.924;2023-06-24T12:11:51;101835.38;;;31.44;29.03
69402;BME280;56589;51.992;5.924;2023-06-24T12:14:17;101827.00;;;31.45;29.51
69402;BME280;56589;51.992;5.924;2023-06-24T12:16:44;101834.31;;;31.51;29.55
69402;BME280;56589;51.992;5.924;2023-06-24T12:19:10;101833.69;;;31.56;29.60
69402;BME280;56589;51.992;5.924;2023-06-24T12:21:36;101827.63;;;31.54;29.69
69402;BME280;56589;51.992;5.924;2023-06-24T12:24:02;101831.63;;;31.45;29.47
69402;BME280;56589;51.992;5.924;2023-06-24T12:26:29;101829.50;;;31.47;29.28
69402;BME280;56589;51.992;5.924;2023-06-24T12:28:58;101825.34;;;31.44;29.52
69402;BME280;56589;51.992;5.924;2023-06-24T12:31:24;101823.47;;;31.45;29.36
69402;BME280;56589;51.992;5.924;2023-06-24T12:33:50;101826.16;;;31.51;29.61
69402;BME280;56589;51.992;5.924;2023-06-24T12:36:17;101818.03;;;31.45;29.89
69402;BME280;56589;51.992;5.924;2023-06-24T12:38:42;101819.50;;;31.47;29.99
69402;BME280;56589;51.992;5.924;2023-06-24T12:41:08;101817.81;;;31.59;29.82
69402;BME280;56589;51.992;5.924;2023-06-24T12:43:34;101821.94;;;31.69;29.56
69402;BME280;56589;51.992;5.924;2023-06-24T12:46:03;101822.97;;;31.74;29.70
69402;BME280;56589;51.992;5.924;2023-06-24T12:48:28;101819.03;;;31.70;29.42
69402;BME280;56589;51.992;5.924;2023-06-24T12:50:54;101819.22;;;31.75;29.54
69402;BME280;56589;51.992;5.924;2023-06-24T12:53:21;101811.50;;;31.79;29.81
69402;BME280;56589;51.992;5.924;2023-06-24T12:55:47;101807.91;;;31.85;29.49